Time;durP1;ratioP1;P1;durP2;ratioP2;P2;SDS_P1;SDS_P2;PMS_P1;PMS_P2;Temp;Humidity;BMP_temperature;BMP_pressure;BME280_temperature;BME280_humidity;BME280_pressure;Samples;Min_cycle;Max_cycle;Signal;HPM_P1;HPM_P2
2023/07/21 03:07:28;;;;;;;;;4.00;4.00;;;;;-145.45;100.00;57426.63;4914494;28;45639;-68
2023/07/21 03:09:54;;;;;;;;;3.33;3.33;;;;;-145.45;100.00;57426.63;4922684;28;45424;-68
2023/07/21 03:12:19;;;;;;;;;7.67;5.33;;;;;-145.45;100.00;57426.63;4916458;28;45581;-68
2023/07/21 03:14:46;;;;;;;;;6.33;5.00;;;;;-145.45;100.00;57426.63;4903947;28;45488;-68
2023/07/21 03:17:12;;;;;;;;;5.67;4.67;;;;;-145.45;100.00;57426.63;4920444;28;45383;-68
2023/07/21 03:19:37;;;;;;;;;5.33;4.67;;;;;-145.45;100.00;57426.63;4921627;28;45339;-68
2023/07/21 03:22:03;;;;;;;;;3.67;3.67;;;;;-145.45;100.00;57426.63;4918398;28;46271;-68
2023/07/21 03:24:28;;;;;;;;;4.00;4.00;;;;;-145.45;100.00;57426.63;4921730;28;45340;-68
2023/07/21 03:26:53;;;;;;;;;6.67;4.33;;;;;-145.45;100.00;57426.63;4919992;28;45367;-68
2023/07/21 03:29:18;;;;;;;;;5.00;3.00;;;;;-145.45;100.00;57426.63;4921914;28;55869;-68
2023/07/21 03:31:44;;;;;;;;;6.67;5.00;;;;;-145.45;100.00;57426.63;4918792;28;45401;-68
2023/07/21 03:34:09;;;;;;;;;5.00;5.00;;;;;-145.45;100.00;57426.63;4922293;28;45382;-68
2023/07/21 03:36:34;;;;;;;;;5.00;3.67;;;;;-145.45;100.00;57426.63;4920881;28;47720;-68
2023/07/21 03:39:00;;;;;;;;;7.67;6.33;;;;;-145.45;100.00;57426.63;4921932;28;53613;-68
2023/07/21 03:41:25;;;;;;;;;3.67;3.67;;;;;-145.45;100.00;57426.63;4921422;28;45411;-68
2023/07/21 03:43:51;;;;;;;;;4.67;4.67;;;;;-145.45;100.00;57426.63;4922112;28;45415;-68
2023/07/21 03:46:16;;;;;;;;;6.00;3.67;;;;;-145.45;100.00;57426.63;4921119;28;47232;-68
2023/07/21 03:48:43;;;;;;;;;5.67;4.67;;;;;-145.45;100.00;57426.63;4921751;28;45296;-68
2023/07/21 03:51:08;;;;;;;;;5.33;2.67;;;;;-145.45;100.00;57426.63;4920942;28;45386;-69
2023/07/21 03:53:33;;;;;;;;;6.33;6.00;;;;;-145.45;100.00;57426.63;4921312;28;45418;-68
2023/07/21 03:55:59;;;;;;;;;6.33;5.33;;;;;-145.45;100.00;57426.63;4921390;28;45424;-69
2023/07/21 03:58:24;;;;;;;;;7.00;7.00;;;;;-145.45;100.00;57426.63;4921723;28;45276;-68
2023/07/21 04:00:50;;;;;;;;;7.33;5.33;;;;;-145.45;100.00;57426.63;4921401;28;45725;-68
2023/07/21 04:03:17;;;;;;;;;5.33;5.33;;;;;-145.45;100.00;57426.63;4923258;28;45277;-68
2023/07/21 04:05:42;;;;;;;;;7.33;6.00;;;;;-145.45;100.00;57426.63;4922004;28;45533;-68
2023/07/21 04:08:07;;;;;;;;;5.67;5.67;;;;;-145.45;100.00;57426.63;4905384;28;45421;-68
2023/07/21 04:10:33;;;;;;;;;8.00;7.00;;;;;-145.45;100.00;57426.63;4922350;28;45554;-68
2023/07/21 04:12:59;;;;;;;;;5.00;5.00;;;;;-145.45;100.00;57426.63;4922723;28;45356;-68
2023/07/21 04:15:25;;;;;;;;;5.00;5.00;;;;;-145.45;100.00;57426.63;4922302;28;45465;-68
2023/07/21 04:17:51;;;;;;;;;6.00;6.00;;;;;-145.45;100.00;57426.63;4922659;28;45386;-68
2023/07/21 04:20:16;;;;;;;;;3.33;3.33;;;;;-145.45;100.00;57426.63;4921892;28;45297;-68
2023/07/21 04:22:41;;;;;;;;;6.33;4.67;;;;;-145.45;100.00;57426.63;4922692;28;45225;-68
2023/07/21 04:25:07;;;;;;;;;4.00;3.00;;;;;-145.45;100.00;57426.63;4922280;28;45718;-68
2023/07/21 04:27:33;;;;;;;;;3.33;3.33;;;;;-145.45;100.00;57426.63;4922625;28;46204;-69
2023/07/21 04:29:59;;;;;;;;;5.00;2.33;;;;;-145.45;100.00;57426.63;4921987;28;45466;-68
2023/07/21 04:32:24;;;;;;;;;3.33;2.67;;;;;-145.45;100.00;57426.63;4922641;28;45348;-68
2023/07/21 04:34:50;;;;;;;;;2.33;2.33;;;;;-145.45;100.00;57426.63;4922045;28;45311;-68
2023/07/21 04:37:15;;;;;;;;;4.00;2.67;;;;;-145.45;100.00;57426.63;4922076;28;46329;-68
2023/07/21 04:39:40;;;;;;;;;3.33;3.33;;;;;-145.45;100.00;57426.63;4922601;28;45309;-68
2023/07/21 04:42:06;;;;;;;;;3.00;2.67;;;;;-145.45;100.00;57426.63;4921508;28;50815;-68
2023/07/21 04:44:31;;;;;;;;;2.67;2.67;;;;;-145.45;100.00;57426.63;4922588;28;45383;-68
2023/07/21 04:46:57;;;;;;;;;4.33;3.33;;;;;-145.45;100.00;57426.63;4921611;28;46303;-68
2023/07/21 04:49:22;;;;;;;;;4.33;2.33;;;;;-145.45;100.00;57426.63;4922450;28;45308;-69
2023/07/21 04:51:47;;;;;;;;;3.67;3.00;;;;;-145.45;100.00;57426.63;4921377;28;45499;-69
2023/07/21 04:54:13;;;;;;;;;3.33;3.00;;;;;-145.45;100.00;57426.63;4922247;28;45336;-68
2023/07/21 04:56:39;;;;;;;;;5.00;3.67;;;;;-145.45;100.00;57426.63;4921901;28;46313;-68
2023/07/21 04:59:04;;;;;;;;;3.00;3.00;;;;;-145.45;100.00;57426.63;4921399;28;45317;-68
2023/07/21 05:01:31;;;;;;;;;3.33;3.33;;;;;-145.45;100.00;57426.63;4921389;28;45490;-68
2023/07/21 05:03:57;;;;;;;;;4.33;3.33;;;;;-145.45;100.00;57426.63;4921607;28;45297;-68
2023/07/21 05:06:23;;;;;;;;;2.67;2.67;;;;;-145.45;100.00;57426.63;4920010;28;46436;-68
2023/07/21 05:08:48;;;;;;;;;4.00;2.67;;;;;-145.45;100.00;57426.63;4921867;28;45243;-68
2023/07/21 05:11:13;;;;;;;;;3.33;1.67;;;;;-145.45;100.00;57426.63;4921272;28;49682;-68
2023/07/21 05:13:39;;;;;;;;;3.67;3.67;;;;;-145.45;100.00;57426.63;4921551;28;45370;-68
2023/07/21 05:16:04;;;;;;;;;3.00;3.00;;;;;-145.45;100.00;57426.63;4921087;28;57606;-68
2023/07/21 05:18:30;;;;;;;;;4.00;3.67;;;;;-145.45;100.00;57426.63;4920053;28;45435;-68
2023/07/21 05:20:55;;;;;;;;;4.67;4.00;;;;;-145.45;100.00;57426.63;4921367;28;45342;-68
2023/07/21 05:23:20;;;;;;;;;4.67;4.67;;;;;-145.45;100.00;57426.63;4921585;28;54181;-68
2023/07/21 05:25:45;;;;;;;;;7.33;4.33;;;;;-145.45;100.00;57426.63;4921354;28;48430;-68
2023/07/21 05:28:12;;;;;;;;;2.67;2.67;;;;;-145.45;100.00;57426.63;4921600;28;45256;-69
2023/07/21 05:30:42;;;;;;;;;4.33;4.33;;;;;-145.45;100.00;57426.63;4921368;28;45449;-69
2023/07/21 05:33:07;;;;;;;;;4.00;4.00;;;;;-145.45;100.00;57426.63;4921455;28;45383;-68
2023/07/21 05:35:32;;;;;;;;;4.00;4.00;;;;;-145.45;100.00;57426.63;4920557;28;46133;-69
2023/07/21 05:37:58;;;;;;;;;3.67;2.67;;;;;-145.45;100.00;57426.63;4921128;28;57366;-68
2023/07/21 05:40:23;;;;;;;;;5.33;4.00;;;;;-145.45;100.00;57426.63;4921342;28;45281;-71
2023/07/21 05:42:49;;;;;;;;;3.33;2.67;;;;;-145.45;100.00;57426.63;4921578;28;45228;-68
2023/07/21 05:45:15;;;;;;;;;4.33;3.33;;;;;-145.45;100.00;57426.63;4921052;28;45353;-68
2023/07/21 05:47:41;;;;;;;;;3.67;3.33;;;;;-145.45;100.00;57426.63;4913511;28;45448;-69
2023/07/21 05:50:07;;;;;;;;;2.67;2.67;;;;;-145.45;100.00;57426.63;4920787;28;45229;-69
2023/07/21 05:52:33;;;;;;;;;3.67;3.67;;;;;-145.45;100.00;57426.63;4921030;28;45325;-70
2023/07/21 05:54:58;;;;;;;;;3.67;3.67;;;;;-145.45;100.00;57426.63;4921097;28;45548;-69
2023/07/21 05:57:23;;;;;;;;;6.33;4.00;;;;;-145.45;100.00;57426.63;4918934;28;45428;-70
2023/07/21 05:59:49;;;;;;;;;4.00;4.00;;;;;-145.45;100.00;57426.63;4921367;28;45610;-69
2023/07/21 06:02:14;;;;;;;;;5.33;4.00;;;;;-145.45;100.00;57426.63;4920902;28;45513;-69
2023/07/21 06:04:39;;;;;;;;;3.67;3.00;;;;;-145.45;100.00;57426.63;4921628;28;45295;-69
2023/07/21 06:07:05;;;;;;;;;4.00;4.00;;;;;-145.45;100.00;57426.63;4919747;28;45896;-69
2023/07/21 06:09:30;;;;;;;;;5.00;3.33;;;;;-145.45;100.00;57426.63;4921571;28;45392;-71
2023/07/21 06:11:55;;;;;;;;;5.33;5.00;;;;;-145.45;100.00;57426.63;4920096;28;45316;-71
2023/07/21 06:14:21;;;;;;;;;4.00;4.00;;;;;-145.45;100.00;57426.63;4921180;28;45388;-70
2023/07/21 06:16:46;;;;;;;;;2.67;2.33;;;;;-145.45;100.00;57426.63;4919819;28;45368;-70
2023/07/21 06:19:11;;;;;;;;;2.00;2.00;;;;;-145.45;100.00;57426.63;4921502;28;45374;-69
2023/07/21 06:21:37;;;;;;;;;5.00;5.00;;;;;-145.45;100.00;57426.63;4902356;28;45983;-70
2023/07/21 06:24:02;;;;;;;;;7.33;4.67;;;;;-145.45;100.00;57426.63;4920869;28;45323;-69
2023/07/21 06:26:28;;;;;;;;;6.33;5.67;;;;;-145.45;100.00;57426.63;4920385;28;45566;-70
2023/07/21 06:28:54;;;;;;;;;7.33;6.33;;;;;-145.45;100.00;57426.63;4903445;28;45341;-69
2023/07/21 06:31:21;;;;;;;;;8.33;7.33;;;;;-145.45;100.00;57426.63;4920184;28;45332;-69
2023/07/21 06:33:46;;;;;;;;;7.67;7.67;;;;;-145.45;100.00;57426.63;4920886;28;45476;-69
2023/07/21 06:36:12;;;;;;;;;6.67;6.33;;;;;-145.45;100.00;57426.63;4919766;28;45466;-69
2023/07/21 06:38:37;;;;;;;;;7.67;6.67;;;;;-145.45;100.00;57426.63;4920933;28;45441;-69
2023/07/21 06:41:04;;;;;;;;;9.33;8.33;;;;;-145.45;100.00;57426.63;4920576;28;45514;-68
2023/07/21 06:43:30;;;;;;;;;6.00;4.00;;;;;-145.45;100.00;57426.63;4920859;28;45547;-69
2023/07/21 06:45:55;;;;;;;;;8.33;7.33;;;;;-145.45;100.00;57426.63;4898329;28;45519;-69
2023/07/21 06:48:21;;;;;;;;;8.00;6.67;;;;;-145.45;100.00;57426.63;4921070;28;45351;-70
2023/07/21 06:50:47;;;;;;;;;6.67;6.67;;;;;-145.45;100.00;57426.63;4908759;28;45846;-69
2023/07/21 06:53:13;;;;;;;;;9.33;6.67;;;;;-145.45;100.00;57426.63;4912383;28;45353;-69
2023/07/21 06:55:39;;;;;;;;;6.33;5.67;;;;;-145.45;100.00;57426.63;4919962;28;45491;-69
2023/07/21 06:58:04;;;;;;;;;6.33;6.33;;;;;-145.45;100.00;57426.63;4920909;28;45221;-70
2023/07/21 07:00:29;;;;;;;;;7.33;7.00;;;;;-145.45;100.00;57426.63;4920139;28;45438;-70
2023/07/21 07:02:56;;;;;;;;;11.00;7.33;;;;;-145.45;100.00;57426.63;4920555;28;45888;-70
2023/07/21 07:05:21;;;;;;;;;9.00;9.00;;;;;-145.45;100.00;57426.63;4919451;28;45190;-70
2023/07/21 07:07:50;;;;;;;;;10.00;10.00;;;;;-145.45;100.00;57426.63;4920697;28;45439;-70
2023/07/21 07:10:16;;;;;;;;;9.67;9.67;;;;;-145.45;100.00;57426.63;4919538;28;45451;-69
2023/07/21 07:12:41;;;;;;;;;13.67;9.67;;;;;-145.45;100.00;57426.63;4916056;28;45957;-69
2023/07/21 07:15:09;;;;;;;;;11.00;9.67;;;;;-145.45;100.00;57426.63;4902379;28;51807;-69
2023/07/21 07:17:34;;;;;;;;;8.67;6.67;;;;;-145.45;100.00;57426.63;4918957;28;45296;-70
2023/07/21 07:19:59;;;;;;;;;10.33;8.33;;;;;-145.45;100.00;57426.63;4919137;28;45438;-69
2023/07/21 07:22:25;;;;;;;;;9.67;9.67;;;;;-145.45;100.00;57426.63;4920005;28;48532;-69
2023/07/21 07:24:51;;;;;;;;;11.00;9.00;;;;;-145.45;100.00;57426.63;4919839;28;45236;-70
2023/07/21 07:27:16;;;;;;;;;8.67;8.67;;;;;-145.45;100.00;57426.63;4923601;28;45408;-70
2023/07/21 07:29:41;;;;;;;;;10.00;8.00;;;;;-145.45;100.00;57426.63;4923442;28;51538;-70
2023/07/21 07:32:07;;;;;;;;;6.67;6.00;;;;;-145.45;100.00;57426.63;4922914;28;46035;-70
2023/07/21 07:34:33;;;;;;;;;8.00;8.00;;;;;-145.45;100.00;57426.63;4923514;28;45344;-70
2023/07/21 07:36:59;;;;;;;;;7.67;7.33;;;;;-145.45;100.00;57426.63;4922935;28;45334;-70
2023/07/21 07:39:24;;;;;;;;;12.00;9.67;;;;;-145.45;100.00;57426.63;4923413;28;45893;-70
2023/07/21 07:41:51;;;;;;;;;7.67;6.67;;;;;-145.45;100.00;57426.63;4915802;28;48546;-71
2023/07/21 07:44:18;;;;;;;;;9.67;9.67;;;;;-145.45;100.00;57426.63;4917744;28;45275;-70
2023/07/21 07:46:43;;;;;;;;;9.00;9.00;;;;;-145.45;100.00;57426.63;4922951;28;45409;-71
2023/07/21 07:49:09;;;;;;;;;7.00;7.00;;;;;-145.45;100.00;57426.63;4923070;28;45217;-71
2023/07/21 07:51:38;;;;;;;;;10.00;9.00;;;;;-145.45;100.00;57426.63;4905752;28;46321;-70
2023/07/21 07:54:05;;;;;;;;;14.67;10.67;;;;;-145.45;100.00;57426.63;4923127;28;45355;-68
2023/07/21 07:56:30;;;;;;;;;10.67;9.33;;;;;-145.45;100.00;57426.63;4922841;28;45411;-70
2023/07/21 07:58:57;;;;;;;;;13.67;13.00;;;;;-145.45;100.00;57426.63;4903412;28;45403;-69
2023/07/21 08:01:22;;;;;;;;;17.00;13.33;;;;;-145.45;100.00;57426.63;4921687;28;46386;-69
2023/07/21 08:03:48;;;;;;;;;11.33;11.33;;;;;-145.45;100.00;57426.63;4923161;28;45249;-69
2023/07/21 08:06:13;;;;;;;;;11.00;10.00;;;;;-145.45;100.00;57426.63;4922322;28;45259;-68
2023/07/21 08:08:40;;;;;;;;;15.33;11.67;;;;;-145.45;100.00;57426.63;4905707;28;46251;-69
2023/07/21 08:11:06;;;;;;;;;12.00;11.00;;;;;-145.45;100.00;57426.63;4920700;28;46995;-69
2023/07/21 08:13:31;;;;;;;;;12.33;12.00;;;;;-145.45;100.00;57426.63;4922387;28;45269;-69
2023/07/21 08:15:57;;;;;;;;;15.00;12.00;;;;;-145.45;100.00;57426.63;4922573;28;45723;-70
2023/07/21 08:18:22;;;;;;;;;10.00;9.00;;;;;-145.45;100.00;57426.63;4922840;28;45420;-69
2023/07/21 08:20:50;;;;;;;;;8.33;8.33;;;;;-145.45;100.00;57426.63;4921872;28;48386;-68
2023/07/21 08:23:15;;;;;;;;;9.00;6.33;;;;;-145.45;100.00;57426.63;4922493;28;45387;-69
2023/07/21 08:25:41;;;;;;;;;12.33;9.00;;;;;-145.45;100.00;57426.63;4922178;28;46595;-69
2023/07/21 08:28:07;;;;;;;;;8.33;8.33;;;;;-145.45;100.00;57426.63;4922390;28;45351;-69
2023/07/21 08:30:33;;;;;;;;;11.00;10.00;;;;;-145.45;100.00;57426.63;4922195;28;46960;-69
2023/07/21 08:32:58;;;;;;;;;10.33;9.00;;;;;-145.45;100.00;57426.63;4922497;28;45307;-69
2023/07/21 08:35:25;;;;;;;;;10.33;8.67;;;;;-145.45;100.00;57426.63;4921023;28;45495;-69
2023/07/21 08:37:50;;;;;;;;;10.00;8.67;;;;;-145.45;100.00;57426.63;4921382;28;45272;-69
2023/07/21 08:40:16;;;;;;;;;8.00;8.00;;;;;-145.45;100.00;57426.63;4922202;28;45565;-68
2023/07/21 08:42:42;;;;;;;;;9.67;8.00;;;;;-145.45;100.00;57426.63;4922491;28;45629;-69
2023/07/21 08:45:08;;;;;;;;;8.00;8.00;;;;;-145.45;100.00;57426.63;4921467;28;45387;-69
2023/07/21 08:47:34;;;;;;;;;8.33;8.00;;;;;-145.45;100.00;57426.63;4921413;28;45497;-69
2023/07/21 08:50:03;;;;;;;;;9.25;8.00;;;;;-145.45;100.00;57426.63;4921499;28;45494;-75
2023/07/21 08:52:28;;;;;;;;;10.75;10.75;;;;;-145.45;100.00;57426.63;4920144;28;45347;-72
2023/07/21 08:54:53;;;;;;;;;11.00;8.25;;;;;-145.45;100.00;57426.63;4922099;28;45338;-72
2023/07/21 08:57:19;;;;;;;;;9.50;9.25;;;;;-145.45;100.00;57426.63;4922091;28;45243;-72
2023/07/21 08:59:44;;;;;;;;;7.00;7.00;;;;;-145.45;100.00;57426.63;4922256;28;45855;-72
2023/07/21 09:02:11;;;;;;;;;6.00;6.00;;;;;-145.45;100.00;57426.63;4921584;28;45284;-72
2023/07/21 09:04:36;;;;;;;;;8.25;7.75;;;;;-145.45;100.00;57426.63;4922262;28;45899;-72
2023/07/21 09:07:02;;;;;;;;;8.00;8.00;;;;;-145.45;100.00;57426.63;4921003;28;45286;-72
2023/07/21 09:09:30;;;;;;;;;11.00;8.00;;;;;-145.45;100.00;57426.63;4922150;28;45391;-71
2023/07/21 09:12:07;;;;;;;;;5.25;5.25;;;;;-145.45;100.00;57426.63;4920821;28;45560;-73
2023/07/21 09:14:39;;;;;;;;;7.00;7.00;;;;;-145.45;100.00;57426.63;4921257;28;45419;-71
2023/07/21 09:17:07;;;;;;;;;6.00;4.50;;;;;-145.45;100.00;57426.63;4921546;28;45610;-71
2023/07/21 09:19:37;;;;;;;;;8.00;8.00;;;;;-145.45;100.00;57426.63;4921834;28;45447;-72
2023/07/21 09:22:03;;;;;;;;;7.00;6.75;;;;;-145.45;100.00;57426.63;4920923;28;45798;-71
2023/07/21 09:24:29;;;;;;;;;5.75;5.25;;;;;-145.45;100.00;57426.63;4921913;28;45308;-72
2023/07/21 09:27:13;;;;;;;;;6.00;4.75;;;;;-145.45;100.00;57426.63;4921115;28;45775;-71
2023/07/21 09:29:39;;;;;;;;;6.75;6.00;;;;;-145.45;100.00;57426.63;4917008;28;46111;-71
2023/07/21 09:32:18;;;;;;;;;4.00;4.00;;;;;-145.45;100.00;57426.63;4920745;28;45572;-72
2023/07/21 09:34:54;;;;;;;;;6.50;6.50;;;;;-145.45;100.00;57426.63;4921802;28;45269;-72
2023/07/21 09:37:21;;;;;;;;;4.50;4.50;;;;;-145.45;100.00;57426.63;4921209;28;45304;-71
2023/07/21 09:39:51;;;;;;;;;5.50;5.00;;;;;-145.45;100.00;57426.63;4921217;28;46073;-71
2023/07/21 09:42:17;;;;;;;;;4.40;4.40;;;;;-145.45;100.00;57426.63;4919705;28;45409;-71
2023/07/21 09:44:42;;;;;;;;;5.75;4.25;;;;;-145.45;100.00;57426.63;4921624;28;45352;-72
2023/07/21 09:47:08;;;;;;;;;6.00;5.75;;;;;-145.45;100.00;57426.63;4920719;28;45655;-72
2023/07/21 09:49:33;;;;;;;;;6.00;5.25;;;;;-145.45;100.00;57426.63;4920971;28;45686;-72
2023/07/21 09:52:00;;;;;;;;;4.25;3.25;;;;;-145.45;100.00;57426.63;4920321;28;45557;-72
2023/07/21 09:54:29;;;;;;;;;5.00;5.00;;;;;-145.45;100.00;57426.63;4921634;28;45554;-72
2023/07/21 09:56:56;;;;;;;;;3.75;3.00;;;;;-145.45;100.00;57426.63;4920476;28;45473;-72
2023/07/21 09:59:22;;;;;;;;;6.80;5.80;;;;;-145.45;100.00;57426.63;4921324;28;45467;-73
2023/07/21 10:01:48;;;;;;;;;4.00;3.25;;;;;-145.45;100.00;57426.63;4920513;28;45180;-72
2023/07/21 10:04:15;;;;;;;;;2.40;2.20;;;;;-145.45;100.00;57426.63;4920482;28;45542;-72
2023/07/21 10:06:40;;;;;;;;;4.20;4.20;;;;;-145.45;100.00;57426.63;4920268;28;45506;-72
2023/07/21 10:09:09;;;;;;;;;3.25;3.25;;;;;-145.45;100.00;57426.63;4921173;28;45960;-73
2023/07/21 10:11:34;;;;;;;;;5.60;3.60;;;;;-145.45;100.00;57426.63;4920259;28;45400;-72
2023/07/21 10:13:59;;;;;;;;;3.25;3.25;;;;;-145.45;100.00;57426.63;4921163;28;45387;-72
2023/07/21 10:16:28;;;;;;;;;5.00;3.25;;;;;-145.45;100.00;57426.63;4920615;28;45284;-72
2023/07/21 10:19:05;;;;;;;;;3.20;3.20;;;;;-145.45;100.00;57426.63;4918964;28;45437;-72
2023/07/21 10:21:31;;;;;;;;;3.80;3.80;;;;;-145.45;100.00;57426.63;4916001;28;45379;-72
2023/07/21 10:24:00;;;;;;;;;3.40;3.40;;;;;-145.45;100.00;57426.63;4921229;28;45518;-72
2023/07/21 10:26:25;;;;;;;;;2.60;2.40;;;;;-145.45;100.00;57426.63;4920700;28;45417;-72
2023/07/21 10:28:53;;;;;;;;;4.00;3.00;;;;;-145.45;100.00;57426.63;4920013;28;46483;-72
2023/07/21 10:31:25;;;;;;;;;4.40;4.00;;;;;-145.45;100.00;57426.63;4920861;28;45514;-72
2023/07/21 10:34:05;;;;;;;;;2.00;2.00;;;;;-145.45;100.00;57426.63;4921336;28;45364;-72
2023/07/21 10:36:49;;;;;;;;;3.60;3.00;;;;;-145.45;100.00;57426.63;4920157;28;45458;-72
2023/07/21 10:39:20;;;;;;;;;2.80;2.80;;;;;-145.45;100.00;57426.63;4920131;28;45249;-72
2023/07/21 10:41:50;;;;;;;;;3.20;2.80;;;;;-145.45;100.00;57426.63;4920189;28;45304;-72
2023/07/21 10:44:16;;;;;;;;;4.40;1.60;;;;;-145.45;100.00;57426.63;4921044;28;45435;-73
2023/07/21 10:46:44;;;;;;;;;2.60;2.60;;;;;-145.45;100.00;57426.63;4920020;28;46028;-73
2023/07/21 10:49:11;;;;;;;;;5.20;3.40;;;;;-145.45;100.00;57426.63;4920930;28;45455;-72
2023/07/21 10:51:44;;;;;;;;;5.00;4.00;;;;;-145.45;100.00;57426.63;4917250;28;45500;-73
2023/07/21 10:54:11;;;;;;;;;5.20;4.00;;;;;-145.45;100.00;57426.63;4920872;28;45486;-72
2023/07/21 10:56:41;;;;;;;;;1.80;1.80;;;;;-145.45;100.00;57426.63;4919933;28;45431;-72
2023/07/21 10:59:08;;;;;;;;;4.80;3.20;;;;;-145.45;100.00;57426.63;4920629;28;45463;-73
2023/07/21 11:01:36;;;;;;;;;4.20;3.80;;;;;-145.45;100.00;57426.63;4922623;28;45469;-73
2023/07/21 11:04:04;;;;;;;;;2.80;2.00;;;;;-145.45;100.00;57426.63;4924135;28;45293;-73
2023/07/21 11:06:29;;;;;;;;;2.40;2.40;;;;;-145.45;100.00;57426.63;4923067;28;45351;-73
2023/07/21 11:08:54;;;;;;;;;1.25;1.25;;;;;-145.45;100.00;57426.63;4923948;28;45293;-73
2023/07/21 11:11:20;;;;;;;;;3.25;3.25;;;;;-145.45;100.00;57426.63;4923409;28;45444;-72
2023/07/21 11:13:46;;;;;;;;;2.00;2.00;;;;;-145.45;100.00;57426.63;4923809;28;45420;-73
2023/07/21 11:16:11;;;;;;;;;3.00;3.00;;;;;-145.45;100.00;57426.63;4923363;28;45293;-73
2023/07/21 11:18:41;;;;;;;;;2.00;2.00;;;;;-145.45;100.00;57426.63;4923780;28;46112;-72
2023/07/21 11:21:06;;;;;;;;;3.20;2.20;;;;;-145.45;100.00;57426.63;4922120;28;45495;-72
2023/07/21 11:23:31;;;;;;;;;2.75;2.75;;;;;-145.45;100.00;57426.63;4923804;28;46995;-73
2023/07/21 11:26:11;;;;;;;;;1.75;1.75;;;;;-145.45;100.00;57426.63;4923055;28;45570;-73
2023/07/21 11:28:41;;;;;;;;;2.80;2.80;;;;;-145.45;100.00;57426.63;4923566;28;46099;-72
2023/07/21 11:31:13;;;;;;;;;3.20;3.20;;;;;-145.45;100.00;57426.63;4903314;28;45383;-73
2023/07/21 11:33:49;;;;;;;;;3.80;2.80;;;;;-145.45;100.00;57426.63;4923725;28;45439;-73
2023/07/21 11:36:21;;;;;;;;;3.20;3.20;;;;;-145.45;100.00;57426.63;4922541;28;45369;-72
2023/07/21 11:39:01;;;;;;;;;2.60;1.80;;;;;-145.45;100.00;57426.63;4923359;28;46417;-73
2023/07/21 11:41:42;;;;;;;;;3.60;3.60;;;;;-145.45;100.00;57426.63;4923009;28;45284;-74
2023/07/21 11:44:29;;;;;;;;;2.60;1.20;;;;;-145.45;100.00;57426.63;4923617;28;45248;-72
2023/07/21 11:47:13;;;;;;;;;1.20;1.20;;;;;-145.45;100.00;57426.63;4923047;28;45787;-72
2023/07/21 11:49:39;;;;;;;;;4.60;3.20;;;;;-145.45;100.00;57426.63;4916809;28;45523;-72
2023/07/21 11:52:05;;;;;;;;;2.40;2.40;;;;;-145.45;100.00;57426.63;4922259;28;45554;-72
2023/07/21 11:54:49;;;;;;;;;2.00;2.00;;;;;-145.45;100.00;57426.63;4923595;28;45470;-72
2023/07/21 11:57:14;;;;;;;;;2.00;1.40;;;;;-145.45;100.00;57426.63;4921355;28;45530;-73
2023/07/21 11:59:40;;;;;;;;;2.50;2.50;;;;;-145.45;100.00;57426.63;4917052;28;46937;-72
2023/07/21 12:02:08;;;;;;;;;3.25;3.25;;;;;-145.45;100.00;57426.63;4915996;28;45456;-72
2023/07/21 12:04:35;;;;;;;;;4.00;2.80;;;;;-145.45;100.00;57426.63;4919724;28;45431;-73
2023/07/21 12:07:01;;;;;;;;;3.00;3.00;;;;;-145.45;100.00;57426.63;4915673;28;45822;-72
2023/07/21 12:09:27;;;;;;;;;3.80;3.80;;;;;-145.45;100.00;57426.63;4917341;28;46140;-72
2023/07/21 12:11:54;;;;;;;;;4.40;2.20;;;;;-145.45;100.00;57426.63;4916161;28;45597;-73
2023/07/21 12:14:20;;;;;;;;;2.20;2.20;;;;;-145.45;100.00;57426.63;4916354;28;45545;-73
2023/07/21 12:16:45;;;;;;;;;2.00;2.00;;;;;-145.45;100.00;57426.63;4914433;28;45568;-73
2023/07/21 12:19:11;;;;;;;;;2.25;1.00;;;;;-145.45;100.00;57426.63;4914892;28;45504;-73
2023/07/21 12:21:37;;;;;;;;;3.25;2.25;;;;;-145.45;100.00;57426.63;4914561;28;46053;-73
2023/07/21 12:24:02;;;;;;;;;2.50;2.50;;;;;-145.45;100.00;57426.63;4899021;28;45402;-73
2023/07/21 12:26:28;;;;;;;;;4.00;2.75;;;;;-145.45;100.00;57426.63;4916975;28;45431;-73
2023/07/21 12:28:53;;;;;;;;;3.25;3.25;;;;;-145.45;100.00;57426.63;4916786;28;45438;-72
2023/07/21 12:31:20;;;;;;;;;3.00;3.00;;;;;-145.45;100.00;57426.63;4917525;28;45581;-72
2023/07/21 12:33:48;;;;;;;;;3.20;3.00;;;;;-145.45;100.00;57426.63;4916815;28;45889;-72
2023/07/21 12:36:14;;;;;;;;;2.80;2.00;;;;;-145.45;100.00;57426.63;4916210;28;46585;-72
2023/07/21 12:38:43;;;;;;;;;2.40;2.40;;;;;-145.45;100.00;57426.63;4916816;28;46832;-72
2023/07/21 12:41:09;;;;;;;;;2.60;2.60;;;;;-145.45;100.00;57426.63;4913750;28;45460;-72
2023/07/21 12:43:35;;;;;;;;;2.25;2.25;;;;;-145.45;100.00;57426.63;4917265;28;45555;-72
2023/07/21 12:46:01;;;;;;;;;3.00;3.00;;;;;-145.45;100.00;57426.63;4915209;28;45447;-72
2023/07/21 12:48:28;;;;;;;;;4.25;2.25;;;;;-145.45;100.00;57426.63;4917101;28;45403;-72
2023/07/21 12:50:53;;;;;;;;;3.80;3.80;;;;;-145.45;100.00;57426.63;4914698;28;45503;-72
2023/07/21 12:53:19;;;;;;;;;2.25;2.25;;;;;-145.45;100.00;57426.63;4915180;28;46161;-72
2023/07/21 12:55:45;;;;;;;;;3.00;3.00;;;;;-145.45;100.00;57426.63;4916767;28;45747;-72
2023/07/21 12:58:11;;;;;;;;;2.40;2.40;;;;;-145.45;100.00;57426.63;4917778;28;45420;-71
2023/07/21 13:00:36;;;;;;;;;5.00;3.25;;;;;-145.45;100.00;57426.63;4916538;28;45481;-71
2023/07/21 13:03:01;;;;;;;;;3.25;2.00;;;;;-145.45;100.00;57426.63;4916956;28;45625;-72
2023/07/21 13:05:27;;;;;;;;;3.75;3.00;;;;;-145.45;100.00;57426.63;4921350;28;45313;-71
2023/07/21 13:07:53;;;;;;;;;2.75;2.75;;;;;-145.45;100.00;57426.63;4922140;28;45505;-72
2023/07/21 13:10:18;;;;;;;;;4.00;3.00;;;;;-145.45;100.00;57426.63;4920673;28;45537;-71
2023/07/21 13:12:43;;;;;;;;;2.00;2.00;;;;;-145.45;100.00;57426.63;4921879;28;46005;-72
2023/07/21 13:15:09;;;;;;;;;3.25;3.25;;;;;-145.45;100.00;57426.63;4921499;28;45879;-72
2023/07/21 13:17:34;;;;;;;;;3.50;2.25;;;;;-145.45;100.00;57426.63;4922055;28;46495;-72
2023/07/21 13:20:00;;;;;;;;;2.25;2.25;;;;;-145.45;100.00;57426.63;4921346;28;45330;-72
2023/07/21 13:22:25;;;;;;;;;4.50;2.00;;;;;-145.45;100.00;57426.63;4921787;28;45286;-72
2023/07/21 13:24:50;;;;;;;;;3.00;1.50;;;;;-145.45;100.00;57426.63;4921349;28;45443;-72
2023/07/21 13:27:15;;;;;;;;;2.75;2.75;;;;;-145.45;100.00;57426.63;4921732;28;45990;-72
2023/07/21 13:29:41;;;;;;;;;3.25;3.25;;;;;-145.45;100.00;57426.63;4921366;28;45214;-72
2023/07/21 13:32:07;;;;;;;;;3.00;3.00;;;;;-145.45;100.00;57426.63;4921225;28;45437;-72
2023/07/21 13:34:33;;;;;;;;;2.40;2.40;;;;;-145.45;100.00;57426.63;4921671;28;45385;-72
2023/07/21 13:36:58;;;;;;;;;2.25;2.25;;;;;-145.45;100.00;57426.63;4898226;28;48182;-72
2023/07/21 13:39:23;;;;;;;;;4.75;4.75;;;;;-145.45;100.00;57426.63;4921655;28;48644;-72
2023/07/21 13:41:49;;;;;;;;;2.75;2.75;;;;;-145.45;100.00;57426.63;4921468;28;45608;-71
2023/07/21 13:44:15;;;;;;;;;4.25;3.25;;;;;-145.45;100.00;57426.63;4921483;28;45462;-72
2023/07/21 13:46:41;;;;;;;;;3.20;3.20;;;;;-145.45;100.00;57426.63;4918306;28;45450;-72
2023/07/21 13:49:07;;;;;;;;;2.00;2.00;;;;;-145.45;100.00;57426.63;4916320;28;45444;-72
2023/07/21 13:51:32;;;;;;;;;1.00;1.00;;;;;-145.45;100.00;57426.63;4915368;28;45502;-72
2023/07/21 13:53:58;;;;;;;;;2.25;2.25;;;;;-145.45;100.00;57426.63;4918503;28;45545;-72
2023/07/21 13:56:24;;;;;;;;;2.50;2.50;;;;;-145.45;100.00;57426.63;4916311;28;47702;-72
2023/07/21 13:58:50;;;;;;;;;1.75;1.75;;;;;-145.45;100.00;57426.63;4916244;28;45463;-71
2023/07/21 14:01:16;;;;;;;;;4.40;2.60;;;;;-145.45;100.00;57426.63;4915949;28;45446;-73
2023/07/21 14:03:45;;;;;;;;;4.25;4.25;;;;;-145.45;100.00;57426.63;4915730;28;45455;-72
2023/07/21 14:06:10;;;;;;;;;4.80;2.00;;;;;-145.45;100.00;57426.63;4914566;28;46637;-70
2023/07/21 14:08:36;;;;;;;;;3.00;3.00;;;;;-145.45;100.00;57426.63;4899626;28;45305;-71
2023/07/21 14:11:01;;;;;;;;;3.50;3.25;;;;;-145.45;100.00;57426.63;4916083;28;45486;-71